createdAt,value
2024-01-17T00:04:55.758Z,-7.32
2024-01-17T00:09:59.277Z,-7.31
2024-01-17T00:15:03.215Z,-7.36
2024-01-17T00:20:08.025Z,-7.36
2024-01-17T00:25:11.285Z,-7.30
2024-01-17T00:30:34.724Z,-7.22
2024-01-17T00:35:57.851Z,-7.16
2024-01-17T00:41:20.890Z,-7.20
2024-01-17T00:46:43.704Z,-7.30
2024-01-17T00:52:06.476Z,-7.39
2024-01-17T00:57:29.550Z,-7.45
2024-01-17T01:02:52.512Z,-7.38
2024-01-17T01:08:15.663Z,-7.30
2024-01-17T01:13:38.644Z,-7.30
2024-01-17T01:19:01.780Z,-7.36
2024-01-17T01:24:25.133Z,-7.42
2024-01-17T01:29:48.661Z,-7.41
2024-01-17T01:35:11.874Z,-7.32
2024-01-17T01:40:34.726Z,-7.20
2024-01-17T01:45:57.753Z,-7.10
2024-01-17T01:51:20.667Z,-7.04
2024-01-17T01:56:47.639Z,-7.10
2024-01-17T02:02:10.606Z,-7.12
2024-01-17T02:07:35.552Z,-7.07
2024-01-17T02:12:58.763Z,-7.11
2024-01-17T02:18:22.018Z,-7.14
2024-01-17T02:23:49.502Z,-7.09
2024-01-17T02:29:12.310Z,-7.11
2024-01-17T02:34:35.724Z,-7.08
2024-01-17T02:39:38.838Z,-7.01
2024-01-17T02:44:41.691Z,-6.94
2024-01-17T02:49:44.736Z,-6.83
2024-01-17T02:54:48.266Z,-6.70
2024-01-17T03:00:11.609Z,-6.63
2024-01-17T03:05:34.727Z,-6.55
2024-01-17T03:10:57.471Z,-6.52
2024-01-17T03:16:20.539Z,-6.46
2024-01-17T03:21:43.313Z,-6.43
2024-01-17T03:27:06.182Z,-6.44
2024-01-17T03:32:29.240Z,-6.43
2024-01-17T03:37:52.211Z,-6.48
2024-01-17T03:43:15.100Z,-6.51
2024-01-17T03:48:38.360Z,-6.52
2024-01-17T03:54:02.110Z,-6.53
2024-01-17T03:59:06.612Z,-6.51
2024-01-17T04:04:09.581Z,-6.51
2024-01-17T04:09:12.485Z,-6.44
2024-01-17T04:14:16.006Z,-6.40
2024-01-17T04:19:19.090Z,-6.39
2024-01-17T04:24:21.954Z,-6.35
2024-01-17T04:29:24.961Z,-6.35
2024-01-17T04:34:28.268Z,-6.34
2024-01-17T04:39:31.205Z,-6.27
2024-01-17T04:44:34.531Z,-6.25
2024-01-17T04:49:37.845Z,-6.17
2024-01-17T04:54:41.284Z,-6.09
2024-01-17T04:59:44.437Z,-6.05
2024-01-17T05:04:47.629Z,-5.98
2024-01-17T05:09:50.859Z,-5.96
2024-01-17T05:14:54.008Z,-5.94
2024-01-17T05:19:57.312Z,-5.92
2024-01-17T05:25:00.209Z,-5.93
2024-01-17T05:30:03.729Z,-5.91
2024-01-17T05:35:07.806Z,-5.94
2024-01-17T05:40:15.322Z,-5.92
2024-01-17T05:45:18.490Z,-5.84
2024-01-17T05:50:21.546Z,-5.78
2024-01-17T05:55:24.606Z,-5.70
2024-01-17T06:00:27.987Z,-5.62
2024-01-17T06:05:31.260Z,-5.55
2024-01-17T06:10:34.250Z,-5.48
2024-01-17T06:15:37.991Z,-5.42
2024-01-17T06:20:41.898Z,-5.34
2024-01-17T06:25:45.064Z,-5.28
2024-01-17T06:30:47.886Z,-5.18
2024-01-17T06:35:51.285Z,-5.10
2024-01-17T06:40:54.551Z,-5.06
2024-01-17T06:45:57.489Z,-4.97
2024-01-17T06:51:00.471Z,-4.92
2024-01-17T06:56:03.530Z,-4.88
2024-01-17T07:01:06.535Z,-4.82
2024-01-17T07:06:10.361Z,-4.77
2024-01-17T07:11:13.736Z,-4.76
2024-01-17T07:16:17.159Z,-4.68
2024-01-17T07:21:20.243Z,-4.60
2024-01-17T07:26:23.519Z,-4.55
2024-01-17T07:31:26.531Z,-4.46
2024-01-17T07:36:29.923Z,-4.39
2024-01-17T07:41:33.572Z,-4.33
2024-01-17T07:46:36.669Z,-4.25
2024-01-17T07:51:39.972Z,-4.19
2024-01-17T07:56:43.820Z,-4.11
2024-01-17T08:01:47.143Z,-4.00
2024-01-17T08:06:50.192Z,-3.94
2024-01-17T08:11:55.270Z,-3.91
2024-01-17T08:16:58.566Z,-3.84
2024-01-17T08:22:02.768Z,-3.79
2024-01-17T08:27:05.543Z,-3.71
2024-01-17T08:32:08.735Z,-3.62
2024-01-17T08:37:12.077Z,-3.58
2024-01-17T08:42:15.611Z,-3.49
2024-01-17T08:47:19.263Z,-3.42
2024-01-17T08:52:22.670Z,-3.32
2024-01-17T08:57:26.039Z,-3.25
2024-01-17T09:02:29.389Z,-3.22
2024-01-17T09:07:34.081Z,-3.14
2024-01-17T09:12:37.786Z,-3.05
2024-01-17T09:17:41.028Z,-2.94
2024-01-17T09:22:44.773Z,-2.83
2024-01-17T09:27:47.905Z,-2.74
2024-01-17T09:32:51.011Z,-2.64
2024-01-17T09:37:54.178Z,-2.56
2024-01-17T09:43:06.672Z,-2.47
2024-01-17T09:48:39.542Z,-2.35
2024-01-17T09:54:06.879Z,-2.23
2024-01-17T09:59:34.848Z,-2.11
2024-01-17T10:04:57.981Z,-2.02
2024-01-17T10:10:20.849Z,-1.80
2024-01-17T10:15:46.549Z,-1.68
2024-01-17T10:21:09.811Z,-1.67
2024-01-17T10:26:32.854Z,-1.59
2024-01-17T10:31:36.040Z,-1.61
2024-01-17T10:36:40.847Z,-1.60
2024-01-17T10:41:54.416Z,-1.52
2024-01-17T10:46:57.955Z,-1.52
2024-01-17T10:52:12.845Z,-1.55
2024-01-17T10:57:17.321Z,-1.56
2024-01-17T11:02:22.505Z,-1.55
2024-01-17T11:07:26.663Z,-1.53
2024-01-17T11:12:33.102Z,-1.46
2024-01-17T11:17:38.232Z,-1.42
2024-01-17T11:22:41.907Z,-1.45
2024-01-17T11:28:11.084Z,-1.43
2024-01-17T11:33:15.456Z,-1.43
2024-01-17T11:38:25.140Z,-1.41
2024-01-17T11:43:32.370Z,-1.31
2024-01-17T11:48:41.105Z,-1.27
2024-01-17T11:54:08.331Z,-1.27
2024-01-17T11:59:31.677Z,-1.29
2024-01-17T12:04:55.028Z,-1.27
2024-01-17T12:10:14.650Z,-1.29
2024-01-17T12:15:18.331Z,-1.29
2024-01-17T12:20:21.521Z,-1.26
2024-01-17T12:25:24.782Z,-1.24
2024-01-17T12:30:28.511Z,-1.25
2024-01-17T12:35:31.716Z,-1.23
2024-01-17T12:40:34.662Z,-1.18
2024-01-17T12:45:39.793Z,-1.17
2024-01-17T12:50:56.286Z,-1.18
2024-01-17T12:56:01.653Z,-1.16
2024-01-17T13:01:06.396Z,-1.09
2024-01-17T13:06:10.730Z,-1.07
2024-01-17T13:11:18.384Z,-1.08
2024-01-17T13:16:21.676Z,-1.09
2024-01-17T13:21:24.855Z,-1.06
2024-01-17T13:26:27.701Z,-1.02
2024-01-17T13:31:31.010Z,-1.02
2024-01-17T13:36:34.950Z,-1.05
2024-01-17T13:41:37.791Z,-1.07
2024-01-17T13:46:40.775Z,-1.10
2024-01-17T13:51:47.762Z,-1.15
2024-01-17T13:56:54.890Z,-1.16
2024-01-17T14:01:58.339Z,-1.18
2024-01-17T14:07:01.352Z,-1.21
2024-01-17T14:12:06.987Z,-1.27
2024-01-17T14:17:10.830Z,-1.35
2024-01-17T14:22:13.872Z,-1.41
2024-01-17T14:27:17.525Z,-1.41
2024-01-17T14:32:20.742Z,-1.45
2024-01-17T14:37:24.030Z,-1.51
2024-01-17T14:42:27.079Z,-1.56
2024-01-17T14:47:31.479Z,-1.59
2024-01-17T14:52:34.775Z,-1.56
2024-01-17T14:57:38.603Z,-1.58
2024-01-17T15:02:41.534Z,-1.60
2024-01-17T15:07:44.445Z,-1.65
2024-01-17T15:12:47.412Z,-1.71
2024-01-17T15:17:50.573Z,-1.76
2024-01-17T15:22:53.673Z,-1.77
2024-01-17T15:27:56.704Z,-1.73
2024-01-17T15:32:59.584Z,-1.75
2024-01-17T15:38:02.954Z,-1.76
2024-01-17T15:43:05.679Z,-1.81
2024-01-17T15:48:08.660Z,-1.85
2024-01-17T15:53:13.456Z,-1.89
2024-01-17T15:58:17.776Z,-1.89
2024-01-17T16:03:21.685Z,-1.84
2024-01-17T16:08:24.801Z,-1.83
2024-01-17T16:13:48.532Z,-1.83
2024-01-17T16:19:11.656Z,-1.85
2024-01-17T16:24:14.546Z,-1.89
2024-01-17T16:29:17.960Z,-1.93
2024-01-17T16:34:20.967Z,-1.87
2024-01-17T16:39:23.915Z,-1.89
2024-01-17T16:44:26.698Z,-1.91
2024-01-17T16:49:30.806Z,-1.97
2024-01-17T16:54:34.208Z,-2.01
2024-01-17T16:59:37.295Z,-1.98
2024-01-17T17:04:40.385Z,-1.98
2024-01-17T17:09:43.772Z,-2.00
2024-01-17T17:14:46.817Z,-2.05
2024-01-17T17:19:50.006Z,-2.10
2024-01-17T17:24:53.034Z,-2.14
2024-01-17T17:29:56.404Z,-2.12
2024-01-17T17:35:00.138Z,-2.13
2024-01-17T17:40:05.931Z,-2.15
2024-01-17T17:45:10.490Z,-2.20
2024-01-17T17:50:14.850Z,-2.25
2024-01-17T17:55:17.888Z,-2.28
2024-01-17T18:00:21.973Z,-2.28
2024-01-17T18:05:25.016Z,-2.28
2024-01-17T18:10:48.111Z,-2.34
2024-01-17T18:15:50.933Z,-2.40
2024-01-17T18:20:55.447Z,-2.38
2024-01-17T18:25:58.782Z,-2.40
2024-01-17T18:31:03.347Z,-2.43
2024-01-17T18:36:27.567Z,-2.48
2024-01-17T18:41:50.700Z,-2.48
2024-01-17T18:47:13.436Z,-2.48
2024-01-17T18:52:36.404Z,-2.50
2024-01-17T18:57:59.360Z,-2.55
2024-01-17T19:03:22.277Z,-2.59
2024-01-17T19:08:45.290Z,-2.56
2024-01-17T19:14:08.452Z,-2.59
2024-01-17T19:19:31.562Z,-2.63
2024-01-17T19:24:35.882Z,-2.66
2024-01-17T19:29:38.982Z,-2.64
2024-01-17T19:34:42.497Z,-2.64
2024-01-17T19:40:05.570Z,-2.68
2024-01-17T19:45:29.084Z,-2.75
2024-01-17T19:50:32.458Z,-2.76
2024-01-17T19:55:35.380Z,-2.74
2024-01-17T20:00:38.727Z,-2.76
2024-01-17T20:05:41.932Z,-2.78
2024-01-17T20:10:44.920Z,-2.82
2024-01-17T20:15:49.108Z,-2.85
2024-01-17T20:20:52.306Z,-2.84
2024-01-17T20:25:55.111Z,-2.85
2024-01-17T20:30:57.959Z,-2.87
2024-01-17T20:36:21.070Z,-2.90
2024-01-17T20:41:24.511Z,-2.92
2024-01-17T20:46:27.668Z,-2.90
2024-01-17T20:51:31.391Z,-2.91
2024-01-17T20:56:35.616Z,-2.92
2024-01-17T21:01:39.140Z,-2.94
2024-01-17T21:07:03.391Z,-2.95
2024-01-17T21:12:26.534Z,-2.91
2024-01-17T21:17:29.452Z,-2.90
2024-01-17T21:22:32.317Z,-2.93
2024-01-17T21:27:35.310Z,-2.97
2024-01-17T21:32:38.509Z,-2.94
2024-01-17T21:37:43.359Z,-2.90
2024-01-17T21:42:46.316Z,-2.91
2024-01-17T21:47:49.424Z,-2.93
2024-01-17T21:53:12.334Z,-2.94
2024-01-17T21:58:35.277Z,-2.90
2024-01-17T22:03:38.364Z,-2.83
2024-01-17T22:08:48.926Z,-2.80
2024-01-17T22:13:58.259Z,-2.77
2024-01-17T22:19:01.515Z,-2.76
2024-01-17T22:24:04.604Z,-2.79
2024-01-17T22:29:07.558Z,-2.78
2024-01-17T22:34:10.916Z,-2.73
2024-01-17T22:39:15.893Z,-2.69
2024-01-17T22:44:21.199Z,-2.69
2024-01-17T22:49:24.356Z,-2.70
2024-01-17T22:54:27.820Z,-2.69
2024-01-17T22:59:30.893Z,-2.69
2024-01-17T23:04:34.504Z,-2.71
2024-01-17T23:09:37.528Z,-2.65
2024-01-17T23:14:41.196Z,-2.58
2024-01-17T23:19:44.058Z,-2.56
2024-01-17T23:24:47.031Z,-2.62
2024-01-17T23:29:50.309Z,-2.70
2024-01-17T23:34:53.268Z,-2.75
2024-01-17T23:39:56.542Z,-2.71
2024-01-17T23:44:59.292Z,-2.66
2024-01-17T23:50:02.412Z,-2.63
2024-01-17T23:55:06.284Z,-2.58
